createdAt,value
2022-09-28T00:01:27.111Z,98533.66
2022-09-28T00:03:59.786Z,98530.06
2022-09-28T00:06:31.160Z,98519.66
2022-09-28T00:08:58.667Z,98522.13
2022-09-28T00:11:28.140Z,98512.44
2022-09-28T00:14:00.141Z,98514.13
2022-09-28T00:16:31.504Z,98510.91
2022-09-28T00:18:58.601Z,98503.66
2022-09-28T00:21:32.095Z,98494.81
2022-09-28T00:24:17.138Z,98503.19
2022-09-28T00:26:48.567Z,98485.28
2022-09-28T00:29:36.212Z,98491.44
2022-09-28T00:32:11.714Z,98477.28
2022-09-28T00:34:43.130Z,98474.88
2022-09-28T00:37:10.394Z,98480.16
2022-09-28T00:39:41.201Z,98474.31
2022-09-28T00:42:16.119Z,98480.69
2022-09-28T00:44:52.950Z,98473.28
2022-09-28T00:47:42.789Z,98461.03
2022-09-28T00:50:29.691Z,98451.44
2022-09-28T00:53:19.448Z,98453.28
2022-09-28T00:56:19.213Z,98447.84
2022-09-28T00:58:50.490Z,98434.91
2022-09-28T01:01:17.519Z,98431.25
2022-09-28T01:03:48.856Z,98424.25
2022-09-28T01:06:23.270Z,98429.06
2022-09-28T01:08:54.804Z,98429.47
2022-09-28T01:11:22.851Z,98424.97
2022-09-28T01:13:51.595Z,98415.03
2022-09-28T01:17:16.586Z,98404.38
2022-09-28T01:20:43.550Z,98399.97
2022-09-28T01:23:39.157Z,98389.88
2022-09-28T01:26:33.207Z,98381.22
2022-09-28T01:29:11.460Z,98379.25
2022-09-28T01:31:46.768Z,98382.66
2022-09-28T01:34:30.787Z,98374.50
2022-09-28T01:37:05.257Z,98396.94
2022-09-28T01:39:45.792Z,98382.88
2022-09-28T01:42:23.311Z,98388.44
2022-09-28T01:44:56.664Z,98388.22
2022-09-28T01:47:31.547Z,98382.66
2022-09-28T01:50:12.334Z,98377.81
2022-09-28T01:52:56.098Z,98367.34
2022-09-28T01:55:34.985Z,98370.94
2022-09-28T01:58:36.743Z,98377.56
2022-09-28T02:01:18.769Z,98371.56
2022-09-28T02:04:10.357Z,98379.56
2022-09-28T02:06:52.026Z,98372.91
2022-09-28T02:09:33.714Z,98362.75
2022-09-28T02:12:11.663Z,98372.75
2022-09-28T02:14:41.241Z,98378.34
2022-09-28T02:17:09.784Z,98375.34
2022-09-28T02:19:37.474Z,98384.16
2022-09-28T02:22:34.634Z,98369.56
2022-09-28T02:25:07.886Z,98373.56
2022-09-28T02:27:52.779Z,98361.59
2022-09-28T02:30:21.016Z,98363.75
2022-09-28T02:32:54.129Z,98358.53
2022-09-28T02:35:21.985Z,98360.75
2022-09-28T02:37:50.347Z,98355.19
2022-09-28T02:40:21.932Z,98350.19
2022-09-28T02:43:07.876Z,98344.59
2022-09-28T02:46:11.338Z,98352.53
2022-09-28T02:49:28.478Z,98349.59
2022-09-28T02:52:44.516Z,98343.59
2022-09-28T02:55:32.004Z,98334.03
2022-09-28T02:58:28.642Z,98336.34
2022-09-28T03:01:40.586Z,98331.97
2022-09-28T03:04:44.687Z,98328.16
2022-09-28T03:07:57.225Z,98330.38
2022-09-28T03:10:46.095Z,98330.53
2022-09-28T03:13:14.743Z,98331.72
2022-09-28T03:15:48.515Z,98326.72
2022-09-28T03:18:16.552Z,98326.28
2022-09-28T03:20:43.510Z,98328.47
2022-09-28T03:23:24.281Z,98331.53
2022-09-28T03:25:51.712Z,98333.34
2022-09-28T03:28:18.648Z,98335.72
2022-09-28T03:30:45.525Z,98329.13
2022-09-28T03:33:12.464Z,98328.34
2022-09-28T03:35:39.552Z,98323.13
2022-09-28T03:38:06.449Z,98335.91
2022-09-28T03:40:33.498Z,98335.19
2022-09-28T03:43:01.441Z,98328.16
2022-09-28T03:45:28.445Z,98337.53
2022-09-28T03:47:55.387Z,98341.53
2022-09-28T03:50:22.306Z,98331.94
2022-09-28T03:52:49.408Z,98332.31
2022-09-28T03:55:16.509Z,98338.31
2022-09-28T03:57:43.653Z,98334.31
2022-09-28T04:00:11.704Z,98332.28
2022-09-28T04:02:38.566Z,98341.28
2022-09-28T04:05:06.029Z,98342.25
2022-09-28T04:07:33.070Z,98340.88
2022-09-28T04:10:00.036Z,98332.94
2022-09-28T04:12:26.899Z,98328.13
2022-09-28T04:14:54.024Z,98338.38
2022-09-28T04:17:21.083Z,98335.47
2022-09-28T04:19:48.059Z,98348.59
2022-09-28T04:22:15.042Z,98343.19
2022-09-28T04:24:43.519Z,98346.72
2022-09-28T04:27:28.689Z,98362.47
2022-09-28T04:29:56.770Z,98362.22
2022-09-28T04:32:24.844Z,98361.81
2022-09-28T04:34:51.875Z,98358.94
2022-09-28T04:37:18.766Z,98356.69
2022-09-28T04:39:48.355Z,98358.66
2022-09-28T04:42:16.027Z,98360.81
2022-09-28T04:44:43.238Z,98360.41
2022-09-28T04:47:10.167Z,98358.59
2022-09-28T04:49:38.302Z,98356.00
2022-09-28T04:52:06.065Z,98353.38
2022-09-28T04:54:33.033Z,98353.47
2022-09-28T04:57:00.086Z,98352.94
2022-09-28T04:59:26.967Z,98371.19
2022-09-28T05:01:54.160Z,98374.09
2022-09-28T05:04:25.623Z,98362.78
2022-09-28T05:06:53.005Z,98348.00
2022-09-28T05:09:19.920Z,98361.34
2022-09-28T05:11:49.613Z,98354.91
2022-09-28T05:14:16.837Z,98354.31
2022-09-28T05:16:45.013Z,98348.81
2022-09-28T05:19:12.527Z,98353.13
2022-09-28T05:21:39.823Z,98361.69
2022-09-28T05:24:07.573Z,98372.00
2022-09-28T05:26:35.345Z,98366.19
2022-09-28T05:29:02.409Z,98369.09
2022-09-28T05:31:29.374Z,98370.66
2022-09-28T05:33:56.503Z,98377.59
2022-09-28T05:36:26.762Z,98385.38
2022-09-28T05:38:53.706Z,98375.50
2022-09-28T05:41:21.666Z,98385.81
2022-09-28T05:43:48.613Z,98384.84
2022-09-28T05:46:15.638Z,98385.50
2022-09-28T05:48:42.625Z,98382.28
2022-09-28T05:51:10.284Z,98394.06
2022-09-28T05:53:37.307Z,98383.38
2022-09-28T05:56:05.556Z,98386.69
2022-09-28T05:58:32.690Z,98391.09
2022-09-28T06:00:59.732Z,98398.28
2022-09-28T06:03:27.160Z,98402.13
2022-09-28T06:05:54.635Z,98402.97
2022-09-28T06:08:22.202Z,98397.22
2022-09-28T06:10:49.221Z,98399.44
2022-09-28T06:13:16.120Z,98413.03
2022-09-28T06:15:44.840Z,98408.50
2022-09-28T06:18:16.507Z,98417.72
2022-09-28T06:20:44.859Z,98419.91
2022-09-28T06:23:13.351Z,98426.13
2022-09-28T06:25:41.074Z,98418.00
2022-09-28T06:28:12.071Z,98412.75
2022-09-28T06:30:39.810Z,98424.25
2022-09-28T06:33:11.366Z,98424.72
2022-09-28T06:35:38.626Z,98429.47
2022-09-28T06:38:05.533Z,98437.13
2022-09-28T06:40:33.645Z,98444.84
2022-09-28T06:43:10.130Z,98446.88
2022-09-28T06:45:38.530Z,98445.16
2022-09-28T06:48:06.464Z,98437.38
2022-09-28T06:50:40.587Z,98438.13
2022-09-28T06:53:10.439Z,98442.47
2022-09-28T06:55:50.671Z,98453.03
2022-09-28T06:58:20.757Z,98461.22
2022-09-28T07:00:50.884Z,98459.41
2022-09-28T07:03:21.663Z,98459.75
2022-09-28T07:05:54.568Z,98467.47
2022-09-28T07:08:26.302Z,98464.06
2022-09-28T07:10:56.184Z,98470.88
2022-09-28T07:16:13.613Z,98474.69
2022-09-28T07:18:42.187Z,98473.53
2022-09-28T07:21:16.036Z,98485.56
2022-09-28T07:23:53.591Z,98481.78
2022-09-28T07:26:24.205Z,98486.06
2022-09-28T07:28:52.177Z,98482.31
2022-09-28T07:31:19.143Z,98491.53
2022-09-28T07:33:47.420Z,98484.09
2022-09-28T07:36:16.160Z,98495.53
2022-09-28T07:38:43.982Z,98487.34
2022-09-28T07:41:14.294Z,98489.75
2022-09-28T07:43:42.768Z,98494.94
2022-09-28T07:46:12.263Z,98503.78
2022-09-28T07:48:45.716Z,98498.97
2022-09-28T07:51:12.756Z,98496.56
2022-09-28T07:53:39.771Z,98496.38
2022-09-28T07:56:08.751Z,98501.19
2022-09-28T07:58:38.501Z,98502.38
2022-09-28T08:01:11.712Z,98503.34
2022-09-28T08:03:39.541Z,98509.56
2022-09-28T08:06:11.083Z,98514.19
2022-09-28T08:08:39.067Z,98508.78
2022-09-28T08:11:10.486Z,98520.78
2022-09-28T08:13:38.845Z,98526.88
2022-09-28T08:16:08.399Z,98530.47
2022-09-28T08:18:36.433Z,98531.47
2022-09-28T08:21:34.712Z,98532.28
2022-09-28T08:24:01.719Z,98535.06
2022-09-28T08:26:29.182Z,98544.47
2022-09-28T08:28:56.043Z,98542.91
2022-09-28T08:31:23.008Z,98541.06
2022-09-28T08:33:53.731Z,98541.25
2022-09-28T08:36:21.012Z,98542.88
2022-09-28T08:38:47.918Z,98542.22
2022-09-28T08:41:34.856Z,98538.25
2022-09-28T08:44:24.523Z,98554.28
2022-09-28T08:47:01.152Z,98557.13
2022-09-28T08:49:47.239Z,98564.00
2022-09-28T08:52:19.286Z,98555.56
2022-09-28T08:55:13.910Z,98536.09
2022-09-28T08:57:53.383Z,98550.53
2022-09-28T09:00:43.062Z,98541.50
2022-09-28T09:03:18.356Z,98540.91
2022-09-28T09:06:30.246Z,98548.38
2022-09-28T09:09:05.847Z,98547.72
2022-09-28T09:12:00.786Z,98543.50
2022-09-28T09:15:19.943Z,98546.88
2022-09-28T09:17:58.104Z,98550.09
2022-09-28T09:20:56.906Z,98546.28
2022-09-28T09:23:35.764Z,98548.28
2022-09-28T09:26:38.551Z,98552.34
2022-09-28T09:29:50.602Z,98557.56
2022-09-28T09:33:05.370Z,98552.72
2022-09-28T09:35:59.357Z,98550.81
2022-09-28T09:39:22.520Z,98549.91
2022-09-28T09:42:24.055Z,98533.59
2022-09-28T09:45:24.592Z,98529.84
2022-09-28T09:48:14.915Z,98540.88
2022-09-28T09:50:57.832Z,98534.59
2022-09-28T09:54:04.809Z,98539.41
2022-09-28T09:57:11.690Z,98529.91
2022-09-28T09:59:44.876Z,98528.38
2022-09-28T10:02:22.506Z,98526.56
2022-09-28T10:04:58.225Z,98520.31
2022-09-28T10:08:02.138Z,98544.25
2022-09-28T10:10:38.503Z,98542.63
2022-09-28T10:13:06.575Z,98548.09
2022-09-28T10:15:37.107Z,98553.03
2022-09-28T10:18:15.112Z,98542.81
2022-09-28T10:20:48.271Z,98543.97
2022-09-28T10:23:34.499Z,98547.66
2022-09-28T10:26:32.981Z,98547.09
2022-09-28T10:29:08.322Z,98549.75
2022-09-28T10:31:50.508Z,98541.69
2022-09-28T10:34:26.695Z,98555.53
2022-09-28T10:37:15.342Z,98554.34
2022-09-28T10:39:57.574Z,98548.00
2022-09-28T10:42:35.345Z,98556.31
2022-09-28T10:45:23.488Z,98550.06
2022-09-28T10:47:57.096Z,98549.88
2022-09-28T10:50:32.133Z,98565.09
2022-09-28T10:53:22.708Z,98544.03
2022-09-28T10:56:23.438Z,98539.50
2022-09-28T10:58:53.995Z,98548.13
2022-09-28T11:01:33.509Z,98532.69
2022-09-28T11:04:09.462Z,98523.94
2022-09-28T11:06:42.875Z,98525.91
2022-09-28T11:09:35.998Z,98523.41
2022-09-28T11:12:23.078Z,98523.75
2022-09-28T11:15:01.597Z,98525.13
2022-09-28T11:17:42.345Z,98532.63
2022-09-28T11:20:28.797Z,98532.28
2022-09-28T11:23:00.272Z,98531.66
2022-09-28T11:25:31.732Z,98507.97
2022-09-28T11:28:04.746Z,98509.91
2022-09-28T11:31:00.479Z,98510.19
2022-09-28T11:33:54.144Z,98494.91
2022-09-28T11:37:18.008Z,98496.66
2022-09-28T11:40:10.806Z,98501.16
2022-09-28T11:43:07.428Z,98487.88
2022-09-28T11:45:49.691Z,98498.38
2022-09-28T11:48:33.421Z,98502.16
2022-09-28T11:51:08.605Z,98516.41
2022-09-28T11:53:48.253Z,98503.34
2022-09-28T11:56:44.050Z,98519.97
2022-09-28T11:59:48.986Z,98507.44
2022-09-28T12:03:05.561Z,98501.22
2022-09-28T12:05:42.089Z,98492.75
2022-09-28T12:08:31.409Z,98491.75
2022-09-28T12:11:12.384Z,98489.09
2022-09-28T12:13:50.240Z,98486.38
2022-09-28T12:17:05.937Z,98480.66
2022-09-28T12:19:50.560Z,98476.47
2022-09-28T12:22:28.438Z,98476.72
2022-09-28T12:25:01.340Z,98469.81
2022-09-28T12:27:51.807Z,98493.28
2022-09-28T12:30:22.359Z,98479.19
2022-09-28T12:33:13.868Z,98482.81
2022-09-28T12:36:34.473Z,98480.19
2022-09-28T12:39:53.653Z,98477.91
2022-09-28T12:43:14.882Z,98483.38
2022-09-28T12:46:31.410Z,98476.81
2022-09-28T12:53:20.414Z,98500.41
2022-09-28T12:55:59.838Z,98501.09
2022-09-28T12:58:52.437Z,98505.97
2022-09-28T13:01:42.769Z,98506.38
2022-09-28T13:04:48.285Z,98510.06
2022-09-28T13:07:34.088Z,98515.97
2022-09-28T13:10:45.236Z,98494.78
2022-09-28T13:14:06.630Z,98490.97
2022-09-28T13:16:49.858Z,98472.72
2022-09-28T13:19:47.760Z,98481.53
2022-09-28T13:22:56.600Z,98488.84
2022-09-28T13:25:31.560Z,98483.03
2022-09-28T13:28:07.306Z,98479.41
2022-09-28T13:30:39.649Z,98467.31
2022-09-28T13:33:16.590Z,98482.69
2022-09-28T13:35:53.983Z,98470.16
2022-09-28T13:38:22.504Z,98476.44
2022-09-28T13:41:06.065Z,98471.13
2022-09-28T13:44:24.206Z,98470.09
2022-09-28T13:47:49.401Z,98465.91
2022-09-28T13:50:48.756Z,98474.09
2022-09-28T13:54:09.564Z,98476.34
2022-09-28T13:57:11.604Z,98491.56
2022-09-28T14:00:12.627Z,98486.44
2022-09-28T14:03:06.812Z,98490.34
2022-09-28T14:06:13.913Z,98500.88
2022-09-28T14:09:16.884Z,98506.63
2022-09-28T14:12:32.270Z,98498.38
2022-09-28T14:15:01.483Z,98498.88
2022-09-28T14:17:50.854Z,98495.00
2022-09-28T14:20:25.558Z,98504.75
2022-09-28T14:23:19.177Z,98501.44
2022-09-28T14:26:19.462Z,98515.53
2022-09-28T14:29:19.483Z,98522.44
2022-09-28T14:31:52.259Z,98526.09
2022-09-28T14:34:48.981Z,98536.22
2022-09-28T14:38:16.285Z,98529.03
2022-09-28T14:41:11.369Z,98531.59
2022-09-28T14:43:50.200Z,98533.47
2022-09-28T14:46:32.045Z,98547.50
2022-09-28T14:49:26.919Z,98546.66
2022-09-28T14:52:02.536Z,98553.94
2022-09-28T14:54:55.634Z,98554.25
2022-09-28T14:57:32.733Z,98561.03
2022-09-28T15:00:19.300Z,98569.19
2022-09-28T15:02:53.613Z,98559.16
2022-09-28T15:05:36.379Z,98566.94
2022-09-28T15:08:08.542Z,98563.53
2022-09-28T15:10:49.644Z,98557.53
2022-09-28T15:13:29.564Z,98556.91
2022-09-28T15:16:10.369Z,98561.72
2022-09-28T15:18:54.425Z,98569.16
2022-09-28T15:21:42.282Z,98560.63
2022-09-28T15:24:38.806Z,98558.84
2022-09-28T15:27:23.531Z,98572.41
2022-09-28T15:30:25.000Z,98568.03
2022-09-28T15:33:20.539Z,98572.91
2022-09-28T15:36:06.589Z,98571.00
2022-09-28T15:38:46.642Z,98581.28
2022-09-28T15:41:18.595Z,98588.56
2022-09-28T15:44:15.380Z,98592.25
2022-09-28T15:46:52.619Z,98596.19
2022-09-28T15:50:02.339Z,98601.53
2022-09-28T15:52:35.991Z,98598.19
2022-09-28T15:55:22.238Z,98608.25
2022-09-28T15:58:06.108Z,98602.22
2022-09-28T16:00:33.656Z,98603.31
2022-09-28T16:03:29.377Z,98605.94
2022-09-28T16:05:59.239Z,98611.38
2022-09-28T16:08:46.588Z,98609.22
2022-09-28T16:11:24.116Z,98619.91
2022-09-28T16:14:08.924Z,98619.13
2022-09-28T16:16:46.808Z,98625.00
2022-09-28T16:19:27.821Z,98626.06
2022-09-28T16:22:08.123Z,98626.16
2022-09-28T16:24:38.435Z,98621.56
2022-09-28T16:27:25.188Z,98628.63
2022-09-28T16:30:24.337Z,98635.91
2022-09-28T16:33:06.045Z,98635.59
2022-09-28T16:35:41.643Z,98643.84
2022-09-28T16:38:14.505Z,98642.84
2022-09-28T16:40:46.196Z,98644.84
2022-09-28T16:43:34.966Z,98632.59
2022-09-28T16:46:12.793Z,98630.59
2022-09-28T16:48:48.896Z,98639.09
2022-09-28T16:51:17.891Z,98638.44
2022-09-28T16:54:04.201Z,98651.94
2022-09-28T16:56:34.156Z,98641.69
2022-09-28T16:59:02.818Z,98637.44
2022-09-28T17:01:31.330Z,98625.03
2022-09-28T17:03:58.390Z,98623.66
2022-09-28T17:06:25.518Z,98629.47
2022-09-28T17:08:58.338Z,98629.91
2022-09-28T17:11:25.422Z,98641.13
2022-09-28T17:13:56.780Z,98638.09
2022-09-28T17:16:49.707Z,98645.50
2022-09-28T17:19:28.594Z,98644.50
2022-09-28T17:21:55.458Z,98645.53
2022-09-28T17:24:22.804Z,98645.56
2022-09-28T17:26:51.529Z,98657.34
2022-09-28T17:29:19.248Z,98657.75
2022-09-28T17:31:47.790Z,98665.56
2022-09-28T17:34:16.250Z,98659.34
2022-09-28T17:36:44.922Z,98667.56
2022-09-28T17:39:19.203Z,98658.97
2022-09-28T17:41:46.573Z,98663.34
2022-09-28T17:44:16.281Z,98679.13
2022-09-28T17:46:46.315Z,98681.53
2022-09-28T17:49:13.543Z,98688.81
2022-09-28T17:51:40.611Z,98688.81
2022-09-28T17:54:08.790Z,98695.81
2022-09-28T17:56:37.176Z,98691.06
2022-09-28T17:59:10.604Z,98687.41
2022-09-28T18:01:40.195Z,98693.06
2022-09-28T18:04:23.096Z,98690.03
2022-09-28T18:06:59.623Z,98697.69
2022-09-28T18:09:26.591Z,98700.47
2022-09-28T18:12:03.257Z,98690.91
2022-09-28T18:14:31.186Z,98684.03
2022-09-28T18:16:58.151Z,98695.44
2022-09-28T18:19:28.616Z,98706.06
2022-09-28T18:22:05.011Z,98705.63
2022-09-28T18:24:32.544Z,98710.78
2022-09-28T18:27:00.101Z,98716.34
2022-09-28T18:29:30.998Z,98718.00
2022-09-28T18:32:00.036Z,98711.44
2022-09-28T18:34:27.053Z,98710.38
2022-09-28T18:37:03.051Z,98717.50
2022-09-28T18:39:30.469Z,98721.28
2022-09-28T18:42:00.498Z,98721.94
2022-09-28T18:44:27.827Z,98732.28
2022-09-28T18:46:57.953Z,98744.78
2022-09-28T18:49:25.927Z,98738.22
2022-09-28T18:51:53.057Z,98740.34
2022-09-28T18:54:25.324Z,98744.53
2022-09-28T18:56:57.443Z,98756.09
2022-09-28T18:59:32.464Z,98765.25
2022-09-28T19:02:22.291Z,98756.03
2022-09-28T19:04:49.245Z,98766.34
2022-09-28T19:07:16.995Z,98765.16
2022-09-28T19:09:44.075Z,98766.97
2022-09-28T19:12:14.690Z,98762.50
2022-09-28T19:14:41.578Z,98764.63
2022-09-28T19:17:08.588Z,98763.31
2022-09-28T19:19:35.775Z,98766.03
2022-09-28T19:22:15.083Z,98766.03
2022-09-28T19:24:41.955Z,98770.13
2022-09-28T19:27:08.857Z,98778.00
2022-09-28T19:29:43.936Z,98778.38
2022-09-28T19:32:12.896Z,98776.31
2022-09-28T19:34:39.816Z,98782.41
2022-09-28T19:37:06.882Z,98779.22
2022-09-28T19:39:34.320Z,98777.81
2022-09-28T19:42:01.270Z,98776.56
2022-09-28T19:44:29.733Z,98777.06
2022-09-28T19:47:10.130Z,98779.91
2022-09-28T19:49:39.677Z,98790.06
2022-09-28T19:52:16.843Z,98789.06
2022-09-28T19:54:56.822Z,98797.66
2022-09-28T19:57:31.017Z,98803.75
2022-09-28T20:00:02.383Z,98809.16
2022-09-28T20:02:30.004Z,98811.09
2022-09-28T20:04:56.962Z,98804.47
2022-09-28T20:07:36.099Z,98811.94
2022-09-28T20:10:07.367Z,98813.03
2022-09-28T20:12:35.561Z,98819.38
2022-09-28T20:15:02.657Z,98821.63
2022-09-28T20:17:29.574Z,98829.75
2022-09-28T20:19:57.575Z,98821.13
2022-09-28T20:22:25.540Z,98825.47
2022-09-28T20:24:52.662Z,98827.47
2022-09-28T20:27:23.102Z,98821.06
2022-09-28T20:29:53.720Z,98819.72
2022-09-28T20:32:25.656Z,98820.22
2022-09-28T20:34:52.523Z,98824.16
2022-09-28T20:37:19.378Z,98825.81
2022-09-28T20:39:51.484Z,98820.94
2022-09-28T20:42:19.142Z,98814.00
2022-09-28T20:44:46.082Z,98821.94
2022-09-28T20:47:20.054Z,98825.28
2022-09-28T20:49:47.523Z,98823.78
2022-09-28T20:52:14.464Z,98825.28
2022-09-28T20:54:41.347Z,98824.28
2022-09-28T20:57:17.395Z,98827.94
2022-09-28T20:59:59.847Z,98832.75
2022-09-28T21:02:26.751Z,98817.94
2022-09-28T21:04:54.094Z,98825.19
2022-09-28T21:07:21.036Z,98828.72
2022-09-28T21:09:48.391Z,98823.41
2022-09-28T21:12:18.185Z,98825.19
2022-09-28T21:14:45.091Z,98826.69
2022-09-28T21:17:12.131Z,98830.88
2022-09-28T21:19:39.120Z,98833.50
2022-09-28T21:22:06.829Z,98832.44
2022-09-28T21:24:33.723Z,98831.19
2022-09-28T21:27:00.573Z,98828.19
2022-09-28T21:29:27.689Z,98826.50
2022-09-28T21:31:54.686Z,98817.34
2022-09-28T21:34:22.018Z,98816.28
2022-09-28T21:36:52.580Z,98819.16
2022-09-28T21:39:20.878Z,98820.47
2022-09-28T21:41:48.083Z,98816.88
2022-09-28T21:44:15.083Z,98816.38
2022-09-28T21:46:42.361Z,98816.19
2022-09-28T21:49:10.814Z,98821.28
2022-09-28T21:51:42.143Z,98811.66
2022-09-28T21:54:16.656Z,98812.75
2022-09-28T21:56:48.798Z,98815.81
2022-09-28T21:59:20.464Z,98814.66
2022-09-28T22:01:48.189Z,98810.03
2022-09-28T22:04:15.286Z,98816.22
2022-09-28T22:06:42.234Z,98820.31
2022-09-28T22:09:09.411Z,98811.19
2022-09-28T22:11:37.485Z,98803.03
2022-09-28T22:14:06.694Z,98811.03
2022-09-28T22:16:34.660Z,98804.53
2022-09-28T22:19:06.682Z,98801.84
2022-09-28T22:21:35.019Z,98803.13
2022-09-28T22:24:05.109Z,98809.41
2022-09-28T22:26:37.042Z,98815.13
2022-09-28T22:29:09.754Z,98817.09
2022-09-28T22:31:40.354Z,98816.03
2022-09-28T22:34:08.328Z,98815.84
2022-09-28T22:36:35.301Z,98813.69
2022-09-28T22:39:02.396Z,98815.50
2022-09-28T22:41:30.031Z,98812.16
2022-09-28T22:44:00.486Z,98819.97
2022-09-28T22:46:31.864Z,98817.47
2022-09-28T22:48:59.935Z,98817.38
2022-09-28T22:51:34.154Z,98810.75
2022-09-28T22:54:01.205Z,98811.28
2022-09-28T22:56:28.831Z,98808.44
2022-09-28T22:59:05.901Z,98817.47
2022-09-28T23:01:34.676Z,98818.91
2022-09-28T23:04:01.791Z,98805.03
2022-09-28T23:06:30.872Z,98808.94
2022-09-28T23:08:58.239Z,98813.63
2022-09-28T23:11:25.288Z,98805.97
2022-09-28T23:13:58.875Z,98801.31
2022-09-28T23:16:26.866Z,98806.25
2022-09-28T23:18:56.771Z,98798.91
2022-09-28T23:21:28.092Z,98804.72
2022-09-28T23:24:01.587Z,98806.81
2022-09-28T23:26:32.355Z,98815.13
2022-09-28T23:29:03.596Z,98819.63
2022-09-28T23:31:39.186Z,98816.13
2022-09-28T23:34:06.867Z,98810.28
2022-09-28T23:36:35.203Z,98807.44
2022-09-28T23:39:03.497Z,98811.19
2022-09-28T23:41:30.619Z,98807.94
2022-09-28T23:44:01.747Z,98809.69
2022-09-28T23:46:47.269Z,98820.63
2022-09-28T23:49:14.435Z,98813.06
2022-09-28T23:51:41.318Z,98816.75
2022-09-28T23:54:10.278Z,98818.56
2022-09-28T23:56:37.120Z,98814.63
2022-09-28T23:59:05.126Z,98817.28
